Time;durP1;ratioP1;P1;durP2;ratioP2;P2;SDS_P1;SDS_P2;PMS_P1;PMS_P2;Temp;Humidity;BMP_temperature;BMP_pressure;BME280_temperature;BME280_humidity;BME280_pressure;Samples;Min_cycle;Max_cycle;Signal;HPM_P1;HPM_P2
2021/06/03 00:02:11;;;;;;;1.90;1.20;;;24.00;51.60;;;;;;4990714;28;20960;-77
2021/06/03 00:04:37;;;;;;;1.40;1.10;;;23.90;51.80;;;;;;4990323;28;20931;-77
2021/06/03 00:07:03;;;;;;;1.50;1.10;;;23.90;52.00;;;;;;4989093;28;20614;-76
2021/06/03 00:09:29;;;;;;;1.60;0.93;;;23.80;52.20;;;;;;4990324;28;20586;-76
2021/06/03 00:11:55;;;;;;;1.50;0.97;;;23.70;52.20;;;;;;4988664;28;21205;-75
2021/06/03 00:14:21;;;;;;;2.47;1.30;;;23.70;52.40;;;;;;4989818;28;20601;-76
2021/06/03 00:16:48;;;;;;;2.57;1.03;;;23.70;53.30;;;;;;4989497;28;20661;-77
2021/06/03 00:19:14;;;;;;;2.03;1.17;;;23.60;52.80;;;;;;4990222;28;20578;-76
2021/06/03 00:21:41;;;;;;;2.93;1.50;;;23.60;53.00;;;;;;4989353;28;21175;-76
2021/06/03 00:24:07;;;;;;;2.00;1.30;;;23.60;53.30;;;;;;4988829;28;20598;-76
2021/06/03 00:26:34;;;;;;;2.90;1.30;;;23.50;53.30;;;;;;4988399;28;20610;-76
2021/06/03 00:29:01;;;;;;;2.60;1.47;;;23.50;53.60;;;;;;4988715;28;20610;-76
2021/06/03 00:31:27;;;;;;;1.90;1.20;;;23.50;53.90;;;;;;4995942;28;20626;-75
2021/06/03 00:33:53;;;;;;;3.90;1.17;;;23.40;53.80;;;;;;4973568;28;21239;-76
2021/06/03 00:36:18;;;;;;;3.40;1.47;;;23.40;54.10;;;;;;4990742;28;20594;-76
2021/06/03 00:38:44;;;;;;;1.80;1.10;;;23.40;54.30;;;;;;4991460;28;20179;-76
2021/06/03 00:41:11;;;;;;;1.70;1.20;;;23.30;54.20;;;;;;4989772;28;20182;-76
2021/06/03 00:43:36;;;;;;;3.07;2.00;;;23.30;54.40;;;;;;4991277;28;20598;-77
2021/06/03 00:46:04;;;;;;;1.60;1.20;;;23.30;54.50;;;;;;4991099;28;20593;-75
2021/06/03 00:48:30;;;;;;;3.20;1.57;;;23.30;54.60;;;;;;4989925;28;20209;-76
2021/06/03 00:50:59;;;;;;;2.17;1.10;;;23.30;54.70;;;;;;4989822;28;20629;-76
2021/06/03 00:53:26;;;;;;;2.20;1.30;;;23.30;54.90;;;;;;4988614;28;20574;-76
2021/06/03 00:55:56;;;;;;;2.67;1.30;;;23.30;55.00;;;;;;4989737;28;20591;-76
2021/06/03 00:58:25;;;;;;;2.50;1.30;;;23.20;55.20;;;;;;4989606;28;20934;-77
2021/06/03 01:00:52;;;;;;;1.60;1.27;;;23.20;55.30;;;;;;4987353;28;20909;-76
2021/06/03 01:03:19;;;;;;;1.90;1.10;;;23.20;55.50;;;;;;4988446;28;20563;-77
2021/06/03 01:05:59;;;;;;;3.87;1.47;;;23.10;55.70;;;;;;4988421;28;20603;-77
2021/06/03 01:08:37;;;;;;;1.90;1.70;;;23.10;55.90;;;;;;4993516;28;20593;-77
2021/06/03 01:11:12;;;;;;;2.03;1.20;;;23.10;56.00;;;;;;4989782;28;20622;-77
2021/06/03 01:14:01;;;;;;;2.40;1.40;;;23.00;56.50;;;;;;4971820;28;20610;-77
2021/06/03 01:16:29;;;;;;;1.70;1.03;;;22.90;57.00;;;;;;4983471;28;20924;-76
2021/06/03 01:18:59;;;;;;;1.93;1.40;;;22.90;56.60;;;;;;4979927;28;20639;-76
2021/06/03 01:21:40;;;;;;;2.00;1.70;;;22.80;56.60;;;;;;4988302;28;20570;-76
2021/06/03 01:24:21;;;;;;;2.17;1.97;;;22.80;57.00;;;;;;4972067;28;21200;-76
2021/06/03 01:26:47;;;;;;;2.70;1.60;;;22.80;57.10;;;;;;4989012;28;20635;-76
2021/06/03 01:29:17;;;;;;;3.50;1.27;;;22.70;57.80;;;;;;4989398;28;20570;-77
2021/06/03 01:31:49;;;;;;;1.73;1.57;;;22.70;58.60;;;;;;4987950;28;21076;-77
2021/06/03 01:34:21;;;;;;;2.67;1.40;;;22.70;58.00;;;;;;4988053;28;20566;-76
2021/06/03 01:36:48;;;;;;;2.10;1.50;;;22.60;58.40;;;;;;5003908;28;20610;-76
2021/06/03 01:39:15;;;;;;;3.77;1.47;;;22.60;58.70;;;;;;4988072;28;21247;-76
2021/06/03 01:41:41;;;;;;;2.30;1.50;;;22.60;58.50;;;;;;4987958;28;20635;-76
2021/06/03 01:44:11;;;;;;;2.23;1.80;;;22.50;58.90;;;;;;4988220;28;20923;-76
2021/06/03 01:46:37;;;;;;;3.03;1.77;;;22.50;60.00;;;;;;5008230;28;20626;-76
2021/06/03 01:49:04;;;;;;;3.23;1.63;;;22.50;59.50;;;;;;4989307;28;20908;-76
2021/06/03 01:51:30;;;;;;;2.73;1.90;;;22.40;60.30;;;;;;4987930;28;20625;-77
2021/06/03 01:53:56;;;;;;;2.83;2.00;;;22.40;61.20;;;;;;4987801;28;20571;-76
2021/06/03 01:56:23;;;;;;;2.53;2.00;;;22.40;60.40;;;;;;4987647;28;20975;-76
2021/06/03 01:58:49;;;;;;;2.00;1.67;;;22.30;60.90;;;;;;4987909;28;21152;-76
2021/06/03 02:01:18;;;;;;;2.20;1.43;;;22.30;61.10;;;;;;4989038;28;20604;-76
2021/06/03 02:03:45;;;;;;;3.13;1.63;;;22.30;60.40;;;;;;5004203;28;20574;-76
2021/06/03 02:06:12;;;;;;;1.50;1.30;;;22.20;60.80;;;;;;4987980;28;20571;-76
2021/06/03 02:08:38;;;;;;;2.57;1.20;;;22.20;61.40;;;;;;4989585;28;21161;-77
2021/06/03 02:11:10;;;;;;;1.90;1.60;;;22.10;61.20;;;;;;4989231;28;20720;-76
2021/06/03 02:13:40;;;;;;;1.80;1.23;;;22.10;61.30;;;;;;4994104;28;20974;-76
2021/06/03 02:16:16;;;;;;;3.10;1.87;;;22.10;61.60;;;;;;4991969;28;20652;-77
2021/06/03 02:18:46;;;;;;;2.87;1.10;;;22.00;62.80;;;;;;4993196;28;20600;-77
2021/06/03 02:21:13;;;;;;;2.17;1.43;;;21.90;62.80;;;;;;4994767;28;20578;-76
2021/06/03 02:23:39;;;;;;;2.30;1.53;;;21.90;64.30;;;;;;4992378;28;20586;-77
2021/06/03 02:26:05;;;;;;;4.30;1.70;;;21.80;64.70;;;;;;4991198;28;20581;-77
2021/06/03 02:28:36;;;;;;;3.13;1.60;;;21.80;64.50;;;;;;4990820;28;21137;-77
2021/06/03 02:31:03;;;;;;;2.13;1.60;;;21.70;66.70;;;;;;4990795;28;20628;-77
2021/06/03 02:33:31;;;;;;;1.63;1.30;;;21.60;65.80;;;;;;5007411;28;20628;-77
2021/06/03 02:35:58;;;;;;;1.87;1.10;;;21.60;66.30;;;;;;4992143;28;20949;-77
2021/06/03 02:38:29;;;;;;;2.20;1.20;;;21.50;67.70;;;;;;4991447;28;20998;-76
2021/06/03 02:41:02;;;;;;;2.33;1.80;;;21.40;69.30;;;;;;4991749;28;20574;-77
2021/06/03 02:43:29;;;;;;;1.70;1.10;;;21.40;68.60;;;;;;5006724;28;20566;-77
2021/06/03 02:45:55;;;;;;;2.53;1.43;;;21.40;68.80;;;;;;4990173;28;20582;-77
2021/06/03 02:48:22;;;;;;;1.60;1.20;;;21.40;69.80;;;;;;5024925;22;20662;-82
2021/06/03 02:50:48;;;;;;;4.20;1.53;;;21.30;69.40;;;;;;4956689;28;20652;-81
2021/06/03 02:53:14;;;;;;;2.90;1.20;;;21.30;69.60;;;;;;4971587;28;20567;-80
2021/06/03 02:55:42;;;;;;;1.60;1.20;;;21.30;69.90;;;;;;4975139;28;20594;-81
2021/06/03 02:58:11;;;;;;;1.90;1.27;;;21.30;71.00;;;;;;4978051;28;20630;-80
2021/06/03 03:00:41;;;;;;;2.70;1.07;;;21.30;70.70;;;;;;4976030;28;20926;-80
2021/06/03 03:03:09;;;;;;;1.70;1.27;;;21.30;72.20;;;;;;4976326;28;20579;-80
2021/06/03 03:05:40;;;;;;;1.60;1.23;;;21.20;73.30;;;;;;4978897;28;20567;-81
2021/06/03 03:08:09;;;;;;;2.63;1.20;;;21.20;73.80;;;;;;4978846;28;20603;-81
2021/06/03 03:10:38;;;;;;;1.60;1.40;;;21.20;74.10;;;;;;4945855;28;20629;-81
2021/06/03 03:13:05;;;;;;;2.60;1.40;;;21.20;74.90;;;;;;4975934;28;21130;-81
2021/06/03 03:15:31;;;;;;;1.67;1.30;;;21.10;75.30;;;;;;4980160;28;20571;-81
2021/06/03 03:17:58;;;;;;;2.97;1.20;;;21.10;74.50;;;;;;4976862;28;20694;-81
2021/06/03 03:20:26;;;;;;;3.30;1.30;;;21.10;74.80;;;;;;4979857;28;20998;-81
2021/06/03 03:22:54;;;;;;;2.13;1.10;;;21.10;75.90;;;;;;4986508;28;20575;-82
2021/06/03 03:25:24;;;;;;;1.80;1.50;;;21.10;75.90;;;;;;4977668;28;20736;-81
2021/06/03 03:27:52;;;;;;;2.70;1.37;;;21.10;77.70;;;;;;4976723;28;20609;-81
2021/06/03 03:30:19;;;;;;;1.60;1.40;;;21.10;75.90;;;;;;4978353;28;20955;-81
2021/06/03 03:32:45;;;;;;;3.43;1.63;;;21.10;77.50;;;;;;4978029;28;20601;-82
2021/06/03 03:35:15;;;;;;;4.17;1.20;;;21.10;77.80;;;;;;4965700;28;20573;-81
2021/06/03 03:37:43;;;;;;;2.93;1.20;;;21.00;77.60;;;;;;4993160;28;20616;-81
2021/06/03 03:40:12;;;;;;;1.70;1.20;;;21.00;78.90;;;;;;4976193;28;21233;-81
2021/06/03 03:42:39;;;;;;;1.90;1.47;;;20.90;78.60;;;;;;4974986;28;20592;-81
2021/06/03 03:45:08;;;;;;;3.00;1.20;;;20.90;78.80;;;;;;4959318;28;20989;-81
2021/06/03 03:47:36;;;;;;;2.40;1.23;;;20.90;79.10;;;;;;4976741;28;20576;-81
2021/06/03 03:50:05;;;;;;;2.53;0.97;;;20.90;79.60;;;;;;4978774;28;20601;-82
2021/06/03 03:52:32;;;;;;;2.00;1.20;;;20.90;79.90;;;;;;4976023;28;20587;-81
2021/06/03 03:55:00;;;;;;;2.50;1.20;;;20.90;81.10;;;;;;4977760;28;20579;-81
2021/06/03 03:57:28;;;;;;;1.90;1.10;;;20.80;81.10;;;;;;4978544;28;20579;-81
2021/06/03 03:59:54;;;;;;;1.90;1.10;;;20.80;82.60;;;;;;4974591;28;20646;-81
2021/06/03 04:02:20;;;;;;;1.90;1.43;;;20.80;81.30;;;;;;4974702;28;21130;-81
2021/06/03 04:04:46;;;;;;;2.17;1.20;;;20.80;81.60;;;;;;4973016;28;20183;-81
2021/06/03 04:07:12;;;;;;;1.80;1.20;;;20.90;82.30;;;;;;4972312;28;20592;-81
2021/06/03 04:09:41;;;;;;;3.80;1.50;;;20.80;82.30;;;;;;4956719;28;20188;-81
2021/06/03 04:12:08;;;;;;;1.70;1.27;;;20.80;83.30;;;;;;4954414;28;20710;-82
2021/06/03 04:14:37;;;;;;;2.43;1.40;;;20.80;84.80;;;;;;4974576;28;20571;-81
2021/06/03 04:17:03;;;;;;;1.63;1.10;;;20.80;84.30;;;;;;4957777;28;20975;-81
2021/06/03 04:19:29;;;;;;;2.43;1.20;;;20.80;84.90;;;;;;4978628;28;20599;-81
2021/06/03 04:21:55;;;;;;;1.40;1.13;;;20.80;85.20;;;;;;4975800;28;20641;-81
2021/06/03 04:24:26;;;;;;;1.70;1.33;;;20.80;85.50;;;;;;4972680;28;20640;-81
2021/06/03 04:26:52;;;;;;;1.60;1.03;;;20.80;85.70;;;;;;4971979;28;21154;-81
2021/06/03 04:29:17;;;;;;;1.77;1.23;;;20.80;86.40;;;;;;4975766;28;20673;-81
2021/06/03 04:31:43;;;;;;;2.80;1.10;;;20.80;87.10;;;;;;4972413;28;20216;-81
2021/06/03 04:34:09;;;;;;;2.00;1.10;;;20.90;86.90;;;;;;4970637;28;20171;-81
2021/06/03 04:36:34;;;;;;;2.33;1.40;;;20.90;87.50;;;;;;4971679;28;20229;-81
2021/06/03 04:39:00;;;;;;;1.60;1.10;;;20.90;88.00;;;;;;4971936;28;20215;-81
2021/06/03 04:41:26;;;;;;;2.07;1.00;;;21.00;88.20;;;;;;4956710;28;20640;-81
2021/06/03 04:43:52;;;;;;;2.13;1.10;;;21.10;88.70;;;;;;4972873;28;20583;-81
2021/06/03 04:46:18;;;;;;;2.03;1.20;;;21.10;88.40;;;;;;4953599;28;20176;-82
2021/06/03 04:48:43;;;;;;;1.60;1.13;;;21.20;89.50;;;;;;4970895;28;20256;-81
2021/06/03 04:51:09;;;;;;;1.93;1.20;;;21.30;89.20;;;;;;4968935;28;20203;-81
2021/06/03 04:53:35;;;;;;;1.60;1.00;;;21.40;89.10;;;;;;4970251;28;20258;-81
2021/06/03 04:56:01;;;;;;;1.80;1.20;;;21.50;90.00;;;;;;4970130;28;20263;-81
2021/06/03 04:58:27;;;;;;;1.40;1.00;;;21.60;88.80;;;;;;4969661;28;21186;-81
2021/06/03 05:00:53;;;;;;;1.50;1.00;;;21.80;88.90;;;;;;4970404;28;20198;-81
2021/06/03 05:03:19;;;;;;;1.97;1.37;;;21.80;88.90;;;;;;4971439;28;20979;-81
2021/06/03 05:05:47;;;;;;;3.10;1.10;;;21.90;88.90;;;;;;4971980;28;20626;-82
2021/06/03 05:08:13;;;;;;;3.57;1.47;;;22.00;88.80;;;;;;4952631;28;20654;-82
2021/06/03 05:10:39;;;;;;;1.77;1.20;;;22.10;89.00;;;;;;4970402;28;20203;-81
2021/06/03 05:13:06;;;;;;;1.73;1.13;;;22.20;89.20;;;;;;4969436;28;21205;-82
2021/06/03 05:15:32;;;;;;;2.30;1.20;;;22.50;89.90;;;;;;4970474;28;20571;-82
2021/06/03 05:17:58;;;;;;;2.20;1.10;;;22.60;89.30;;;;;;4973312;28;21386;-81
2021/06/03 05:20:28;;;;;;;1.63;1.00;;;22.80;89.00;;;;;;4959023;28;20575;-81
2021/06/03 05:22:56;;;;;;;2.17;1.00;;;22.90;88.60;;;;;;4971204;28;21125;-82
2021/06/03 05:25:25;;;;;;;1.63;1.00;;;23.00;88.30;;;;;;4970051;28;20572;-81
2021/06/03 05:27:51;;;;;;;1.47;0.90;;;23.10;88.30;;;;;;4969749;28;20952;-81
2021/06/03 05:30:17;;;;;;;2.60;1.27;;;23.10;88.10;;;;;;4969958;28;20579;-81
2021/06/03 05:32:44;;;;;;;2.97;1.10;;;23.20;87.90;;;;;;4969408;28;20762;-81
2021/06/03 05:35:12;;;;;;;2.00;1.13;;;23.20;88.80;;;;;;4968859;28;20938;-81
2021/06/03 05:37:39;;;;;;;2.43;1.00;;;23.20;87.60;;;;;;4968655;28;20664;-81
2021/06/03 05:40:06;;;;;;;1.97;1.10;;;23.30;87.60;;;;;;4970435;28;20979;-81
2021/06/03 05:42:32;;;;;;;2.20;1.60;;;23.30;87.40;;;;;;4971908;28;20572;-81
2021/06/03 05:44:58;;;;;;;2.50;1.10;;;23.40;87.40;;;;;;4969962;28;20568;-81
2021/06/03 05:47:24;;;;;;;1.30;0.93;;;23.50;87.20;;;;;;4970468;28;20571;-80
2021/06/03 05:49:49;;;;;;;1.60;1.10;;;23.50;87.10;;;;;;4975173;28;20260;-81
2021/06/03 05:52:15;;;;;;;1.87;1.10;;;23.50;86.90;;;;;;4974682;28;20703;-81
2021/06/03 05:54:41;;;;;;;1.90;1.20;;;23.50;87.00;;;;;;4958258;28;20171;-81
2021/06/03 05:57:07;;;;;;;2.70;1.03;;;23.40;87.10;;;;;;4974144;28;20176;-82
2021/06/03 05:59:33;;;;;;;2.53;0.90;;;23.40;87.20;;;;;;4974425;28;20591;-81
2021/06/03 06:02:03;;;;;;;1.50;1.00;;;23.40;87.50;;;;;;4975288;28;20941;-81
2021/06/03 06:06:08;;;;;;;1.50;1.10;;;23.40;87.70;;;;;;4975445;28;20571;-81
2021/06/03 06:07:15;;;;;;;2.10;0.97;;;23.50;88.10;;;;;;4972527;28;20590;-81
2021/06/03 06:09:40;;;;;;;1.50;1.07;;;23.60;88.50;;;;;;4975120;28;20711;-80
2021/06/03 06:12:06;;;;;;;1.33;1.10;;;23.70;88.80;;;;;;4973412;28;20218;-80
2021/06/03 06:14:32;;;;;;;1.93;1.60;;;23.90;88.80;;;;;;4975042;28;20183;-80
2021/06/03 06:16:58;;;;;;;2.23;1.10;;;23.90;88.70;;;;;;4975055;28;20567;-79
2021/06/03 06:19:24;;;;;;;2.03;0.90;;;24.10;88.80;;;;;;4978023;28;20207;-80
2021/06/03 06:21:52;;;;;;;1.50;0.90;;;24.20;88.50;;;;;;4975201;28;20205;-80
2021/06/03 06:24:18;;;;;;;1.70;1.00;;;24.40;88.50;;;;;;4980260;28;20172;-80
2021/06/03 06:26:44;;;;;;;2.83;1.20;;;24.50;87.90;;;;;;4979240;28;20625;-79
2021/06/03 06:29:09;;;;;;;23.33;2.23;;;24.50;89.60;;;;;;4974791;28;20980;-79
2021/06/03 06:31:35;;;;;;;3.00;1.20;;;24.50;90.30;;;;;;4973727;28;20199;-79
2021/06/03 06:34:01;;;;;;;2.23;1.00;;;24.30;89.50;;;;;;4974772;28;20662;-79
2021/06/03 06:36:27;;;;;;;2.77;1.10;;;24.10;89.40;;;;;;4974156;28;20168;-78
2021/06/03 06:38:52;;;;;;;2.60;1.00;;;23.90;90.10;;;;;;4974630;28;20199;-78
2021/06/03 06:41:18;;;;;;;1.50;1.40;;;23.80;90.60;;;;;;4973369;28;20241;-79
2021/06/03 06:43:44;;;;;;;2.73;1.20;;;23.70;91.20;;;;;;4973470;28;20640;-78
2021/06/03 06:46:09;;;;;;;1.67;1.23;;;23.60;91.40;;;;;;4972554;28;20172;-78
2021/06/03 06:48:36;;;;;;;1.47;1.10;;;23.40;91.90;;;;;;4973279;28;20207;-78
2021/06/03 06:51:03;;;;;;;1.40;0.90;;;23.30;92.40;;;;;;4975225;28;20203;-78
2021/06/03 06:53:28;;;;;;;1.40;1.10;;;23.20;92.60;;;;;;4973549;28;20567;-80
2021/06/03 06:55:55;;;;;;;2.20;1.20;;;23.00;93.00;;;;;;4975990;28;20947;-79
2021/06/03 06:58:21;;;;;;;1.90;1.13;;;22.90;93.30;;;;;;4973508;28;20215;-79
2021/06/03 07:00:48;;;;;;;1.67;1.17;;;22.80;93.60;;;;;;4972465;28;21157;-79
2021/06/03 07:03:14;;;;;;;3.40;1.60;;;22.70;94.30;;;;;;4971807;28;21034;-79
2021/06/03 07:05:42;;;;;;;1.70;1.37;;;22.50;95.10;;;;;;4972231;28;20666;-78
2021/06/03 07:08:08;;;;;;;3.87;1.20;;;22.30;95.70;;;;;;4972980;28;20203;-79
2021/06/03 07:10:34;;;;;;;2.00;1.30;;;22.20;96.30;;;;;;4973743;28;20966;-79
2021/06/03 07:13:00;;;;;;;1.70;1.10;;;22.00;96.80;;;;;;4973767;28;20778;-79
2021/06/03 07:15:26;;;;;;;2.83;1.63;;;21.90;97.60;;;;;;4974265;28;20572;-79
2021/06/03 07:17:53;;;;;;;2.60;1.43;;;21.80;98.30;;;;;;4973819;28;20194;-79
2021/06/03 07:20:19;;;;;;;1.90;1.60;;;21.70;99.10;;;;;;4971827;28;20571;-79
2021/06/03 07:22:48;;;;;;;2.07;1.37;;;21.60;99.70;;;;;;4974358;28;20583;-79
2021/06/03 07:25:15;;;;;;;1.90;1.47;;;21.60;99.90;;;;;;4973884;28;20973;-79
2021/06/03 07:27:42;;;;;;;2.20;1.80;;;21.60;99.90;;;;;;4973584;28;21232;-79
2021/06/03 07:30:11;;;;;;;2.70;1.43;;;21.70;99.90;;;;;;4972248;28;20579;-79
2021/06/03 07:32:38;;;;;;;2.27;1.50;;;21.90;99.90;;;;;;4977186;28;20595;-79
2021/06/03 07:35:09;;;;;;;2.60;1.60;;;22.00;99.90;;;;;;4973963;28;20964;-79
2021/06/03 07:37:42;;;;;;;2.63;1.20;;;22.10;99.90;;;;;;4970700;28;20595;-79
2021/06/03 07:40:10;;;;;;;2.43;1.40;;;22.30;99.90;;;;;;4972890;28;20574;-79
2021/06/03 07:42:37;;;;;;;2.10;1.40;;;22.50;99.90;;;;;;4972184;28;20586;-79
2021/06/03 07:45:08;;;;;;;2.97;1.87;;;22.70;99.90;;;;;;4956469;28;20666;-80
2021/06/03 07:47:35;;;;;;;4.83;1.63;;;22.80;99.90;;;;;;4970409;28;20582;-78
2021/06/03 07:50:02;;;;;;;2.60;1.30;;;22.90;99.90;;;;;;4971674;28;20666;-78
2021/06/03 07:52:28;;;;;;;2.37;1.47;;;23.00;99.90;;;;;;4954388;28;20622;-78
2021/06/03 07:54:53;;;;;;;2.40;1.33;;;23.10;99.90;;;;;;4972502;28;20573;-78
2021/06/03 07:57:19;;;;;;;1.70;1.33;;;23.20;99.90;;;;;;4971842;28;20202;-78
2021/06/03 07:59:45;;;;;;;1.90;1.50;;;23.30;99.90;;;;;;4979061;28;20282;-77
2021/06/03 08:02:11;;;;;;;2.30;2.10;;;23.30;99.90;;;;;;4972394;28;20175;-79
2021/06/03 08:04:36;;;;;;;1.90;1.53;;;23.40;99.90;;;;;;4973349;28;20190;-78
2021/06/03 08:07:02;;;;;;;2.87;1.73;;;23.40;99.90;;;;;;4973149;28;20182;-78
2021/06/03 08:09:28;;;;;;;2.10;1.63;;;23.40;99.90;;;;;;4975394;28;20200;-80
2021/06/03 08:11:54;;;;;;;1.50;1.23;;;23.40;99.90;;;;;;4971616;28;20622;-80
2021/06/03 08:14:20;;;;;;;5.03;1.90;;;23.40;99.90;;;;;;4971163;28;20172;-80
2021/06/03 08:16:45;;;;;;;2.30;1.33;;;23.40;99.90;;;;;;4970438;28;20314;-80
2021/06/03 08:19:11;;;;;;;2.40;1.43;;;23.40;99.90;;;;;;4972157;28;20222;-80
2021/06/03 08:21:37;;;;;;;1.90;1.53;;;23.50;99.90;;;;;;4973212;28;20187;-79
2021/06/03 08:24:03;;;;;;;2.57;1.77;;;23.60;99.90;;;;;;4972912;28;20187;-80
2021/06/03 08:26:30;;;;;;;2.03;1.50;;;23.80;99.90;;;;;;4968888;28;20176;-81
2021/06/03 08:28:57;;;;;;;2.27;2.07;;;24.00;99.90;;;;;;4968902;28;20990;-81
2021/06/03 08:31:24;;;;;;;2.23;1.60;;;24.30;99.90;;;;;;4969586;28;20638;-82
2021/06/03 08:33:50;;;;;;;2.10;1.57;;;24.50;99.90;;;;;;4970483;28;20578;-81
2021/06/03 08:36:16;;;;;;;1.90;1.30;;;24.70;99.90;;;;;;4969900;28;20575;-81
2021/06/03 08:38:41;;;;;;;2.97;1.30;;;24.90;99.90;;;;;;4969781;28;20225;-81
2021/06/03 08:41:07;;;;;;;3.10;2.40;;;24.90;99.90;;;;;;4970318;28;20632;-82
2021/06/03 08:43:35;;;;;;;2.27;2.00;;;24.90;99.90;;;;;;4968691;28;20579;-80
2021/06/03 08:46:02;;;;;;;2.70;2.43;;;24.90;99.90;;;;;;4975315;28;20606;-80
2021/06/03 08:48:29;;;;;;;3.40;1.93;;;24.90;99.90;;;;;;4951876;28;20631;-81
2021/06/03 08:50:59;;;;;;;2.80;2.60;;;24.90;99.90;;;;;;4952632;28;20623;-81
2021/06/03 08:53:25;;;;;;;2.30;1.90;;;24.90;99.90;;;;;;4969931;28;20871;-81
2021/06/03 08:58:36;;;;;;;2.53;1.63;;;24.70;99.90;;;;;;4969311;28;20614;-80
2021/06/03 09:01:04;;;;;;;2.93;2.23;;;24.60;99.90;;;;;;4968731;28;20591;-80
2021/06/03 09:03:31;;;;;;;3.23;2.83;;;24.50;99.90;;;;;;4968639;28;20620;-80
2021/06/03 09:05:58;;;;;;;3.20;2.70;;;24.30;99.90;;;;;;4969892;28;20667;-80
2021/06/03 09:08:32;;;;;;;4.87;2.70;;;24.10;99.90;;;;;;4951679;28;21242;-80
2021/06/03 09:11:07;;;;;;;4.40;2.80;;;23.80;99.90;;;;;;4968642;28;20668;-79
2021/06/03 09:13:36;;;;;;;4.10;2.83;;;23.50;99.90;;;;;;4973006;28;20555;-79
2021/06/03 09:16:13;;;;;;;2.63;2.43;;;23.30;99.90;;;;;;4951854;28;20679;-80
2021/06/03 09:18:44;;;;;;;4.40;2.90;;;23.20;99.90;;;;;;4970162;28;20611;-80
2021/06/03 09:21:19;;;;;;;4.27;3.20;;;23.10;99.90;;;;;;5011769;23;20710;-77
2021/06/03 09:24:02;;;;;;;6.30;3.03;;;23.00;99.90;;;;;;5106667;27;20625;-76
2021/06/03 09:26:30;;;;;;;3.77;2.97;;;22.90;99.90;;;;;;5075266;28;20566;-76
2021/06/03 09:28:59;;;;;;;3.87;2.77;;;22.80;99.90;;;;;;5075296;28;20569;-77
2021/06/03 09:31:29;;;;;;;3.30;3.00;;;22.80;99.90;;;;;;5075268;28;20637;-77
2021/06/03 09:33:59;;;;;;;3.87;2.93;;;22.80;99.90;;;;;;5102819;28;20577;-78
2021/06/03 09:36:33;;;;;;;5.40;3.60;;;22.80;99.90;;;;;;5102481;28;20582;-77
2021/06/03 09:39:24;;;;;;;3.30;2.80;;;22.80;99.90;;;;;;5094407;28;20611;-77
2021/06/03 09:42:06;;;;;;;5.60;3.47;;;22.80;99.90;;;;;;5094453;28;20630;-77
2021/06/03 09:44:35;;;;;;;5.67;4.20;;;22.90;99.90;;;;;;5086610;28;20586;-78
2021/06/03 09:47:08;;;;;;;4.70;3.20;;;22.90;99.90;;;;;;5095015;28;20634;-77
2021/06/03 09:49:38;;;;;;;3.87;3.57;;;22.90;99.90;;;;;;5095071;28;20899;-78
2021/06/03 09:52:12;;;;;;;4.77;4.10;;;22.90;99.90;;;;;;5093874;28;20636;-77
2021/06/03 09:54:39;;;;;;;3.47;2.63;;;23.00;99.90;;;;;;5093795;28;20577;-78
2021/06/03 09:57:10;;;;;;;4.13;3.80;;;23.00;99.90;;;;;;5076686;28;20577;-76
2021/06/03 09:59:43;;;;;;;4.30;3.50;;;23.00;99.90;;;;;;5095543;28;20570;-77
2021/06/03 10:02:19;;;;;;;3.57;2.60;;;23.10;99.90;;;;;;5093718;28;20701;-78
2021/06/03 10:04:51;;;;;;;2.80;2.60;;;23.20;99.90;;;;;;5093648;28;20577;-76
2021/06/03 10:07:21;;;;;;;4.47;3.37;;;23.30;99.90;;;;;;5076473;28;20581;-76
2021/06/03 10:09:53;;;;;;;3.50;3.20;;;23.50;99.90;;;;;;5094748;28;20569;-78
2021/06/03 10:12:27;;;;;;;3.30;3.00;;;23.60;99.90;;;;;;5098847;28;20955;-77
2021/06/03 10:14:57;;;;;;;2.87;2.67;;;23.80;99.90;;;;;;5095562;28;20597;-78
2021/06/03 10:17:47;;;;;;;3.13;2.47;;;24.00;99.90;;;;;;5095851;28;20676;-78
2021/06/03 10:20:19;;;;;;;2.70;2.50;;;24.20;99.90;;;;;;5097643;28;20619;-80
2021/06/03 10:22:47;;;;;;;2.77;2.23;;;24.30;99.90;;;;;;5099788;28;21375;-76
2021/06/03 10:25:15;;;;;;;2.50;1.93;;;24.50;99.90;;;;;;5100623;28;20584;-76
2021/06/03 10:28:00;;;;;;;3.33;2.43;;;24.60;99.90;;;;;;5095393;28;20569;-75
2021/06/03 10:30:30;;;;;;;2.73;2.30;;;24.60;99.90;;;;;;5093121;28;20903;-76
2021/06/03 10:32:59;;;;;;;2.17;1.97;;;24.40;99.90;;;;;;5093743;28;20586;-75
2021/06/03 10:35:28;;;;;;;5.80;2.43;;;24.20;99.90;;;;;;5102157;28;20611;-75
2021/06/03 10:37:55;;;;;;;4.30;3.53;;;24.10;99.90;;;;;;5093431;28;20592;-76
2021/06/03 10:40:24;;;;;;;5.30;3.37;;;23.90;99.90;;;;;;5093721;28;20578;-75
2021/06/03 10:42:51;;;;;;;3.20;2.77;;;23.70;99.90;;;;;;5092301;28;20609;-76
2021/06/03 10:45:19;;;;;;;4.97;2.70;;;23.60;99.90;;;;;;5072593;28;20570;-75
2021/06/03 10:47:46;;;;;;;3.90;2.60;;;23.50;99.90;;;;;;5073586;28;20563;-77
2021/06/03 10:50:17;;;;;;;2.60;2.40;;;23.50;99.90;;;;;;5077572;28;20681;-78
2021/06/03 10:52:44;;;;;;;2.53;2.33;;;23.50;99.90;;;;;;5084017;28;20610;-76
2021/06/03 10:55:23;;;;;;;4.20;2.30;;;23.50;99.90;;;;;;5097273;28;20664;-77
2021/06/03 10:58:03;;;;;;;2.43;2.23;;;23.50;99.90;;;;;;5093581;28;20581;-77
2021/06/03 11:00:37;;;;;;;2.87;2.40;;;23.60;99.90;;;;;;5092708;28;20945;-78
2021/06/03 11:03:17;;;;;;;2.33;2.13;;;23.60;99.90;;;;;;5085385;28;20965;-78
2021/06/03 11:05:44;;;;;;;3.90;2.50;;;23.70;99.90;;;;;;5055219;28;21009;-77
2021/06/03 11:08:32;;;;;;;2.60;1.97;;;23.70;99.90;;;;;;5075229;28;20658;-77
2021/06/03 11:11:12;;;;;;;5.27;2.77;;;23.70;99.90;;;;;;5073060;28;20617;-78
2021/06/03 11:13:59;;;;;;;2.13;1.93;;;23.70;99.90;;;;;;5071922;28;20661;-78
2021/06/03 11:16:26;;;;;;;2.47;1.50;;;23.80;99.90;;;;;;5071745;28;20574;-77
2021/06/03 11:18:56;;;;;;;2.60;1.13;;;23.90;99.90;;;;;;5073262;28;20615;-78
2021/06/03 11:21:31;;;;;;;2.27;1.60;;;24.00;99.90;;;;;;5072768;28;20759;-78
2021/06/03 11:24:15;;;;;;;1.97;1.50;;;24.20;99.90;;;;;;5075123;28;20602;-78
2021/06/03 11:26:43;;;;;;;2.10;1.57;;;24.30;99.90;;;;;;5094431;28;21006;-78
2021/06/03 11:29:35;;;;;;;2.73;2.03;;;24.40;99.90;;;;;;5077175;28;20582;-78
2021/06/03 11:32:04;;;;;;;3.70;2.00;;;24.50;99.90;;;;;;5072697;28;20653;-78
2021/06/03 11:34:38;;;;;;;3.15;2.30;;;24.50;99.90;;;;;;5075828;28;21057;-78
2021/06/03 11:37:08;;;;;;;3.15;2.85;;;24.50;99.90;;;;;;5099416;28;20692;-77
2021/06/03 11:39:52;;;;;;;2.80;2.00;;;24.50;99.90;;;;;;5095120;28;20170;-78
2021/06/03 11:42:23;;;;;;;3.10;1.97;;;24.70;99.90;;;;;;5112952;28;20719;-78
2021/06/03 11:45:17;;;;;;;2.60;2.07;;;24.90;99.90;;;;;;5092846;28;20937;-78
2021/06/03 11:47:43;;;;;;;3.67;1.80;;;25.10;99.90;;;;;;5092425;28;20619;-78
2021/06/03 11:50:14;;;;;;;2.20;1.50;;;25.20;99.90;;;;;;5092867;28;20921;-77
2021/06/03 11:52:53;;;;;;;2.40;2.00;;;25.30;99.90;;;;;;5077994;28;20741;-77
2021/06/03 11:55:48;;;;;;;2.50;1.97;;;25.20;99.90;;;;;;5072729;28;20570;-77
2021/06/03 11:58:15;;;;;;;2.53;2.23;;;25.20;99.90;;;;;;5055102;28;20574;-77
2021/06/03 12:01:05;;;;;;;3.20;2.23;;;25.20;99.90;;;;;;5071292;28;20628;-77
2021/06/03 12:03:46;;;;;;;3.47;1.60;;;25.30;99.90;;;;;;5074403;28;20559;-77
2021/06/03 12:06:15;;;;;;;2.43;1.93;;;25.50;99.90;;;;;;5072603;28;20931;-77
2021/06/03 12:08:50;;;;;;;3.37;1.63;;;25.70;99.90;;;;;;5071582;28;20964;-77
2021/06/03 12:11:36;;;;;;;3.20;1.73;;;25.90;99.90;;;;;;5084783;28;20649;-77
2021/06/03 12:14:19;;;;;;;2.73;2.00;;;26.20;99.90;;;;;;5092740;28;20560;-77
2021/06/03 12:16:48;;;;;;;3.10;1.77;;;26.60;99.90;;;;;;5091354;28;20565;-77
2021/06/03 12:19:22;;;;;;;2.27;1.77;;;27.00;99.90;;;;;;5092400;28;20928;-77
2021/06/03 12:22:07;;;;;;;2.50;1.80;;;27.40;99.90;;;;;;5091597;28;20976;-77
2021/06/03 12:24:43;;;;;;;2.13;1.53;;;27.60;99.90;;;;;;5083428;28;20566;-77
2021/06/03 12:27:24;;;;;;;2.00;1.77;;;27.90;99.90;;;;;;5069973;28;21127;-78
2021/06/03 12:29:51;;;;;;;1.63;1.40;;;28.20;99.90;;;;;;5071916;28;21082;-78
2021/06/03 12:32:18;;;;;;;2.70;2.50;;;28.50;99.90;;;;;;5070297;28;20726;-77
2021/06/03 12:34:45;;;;;;;3.30;2.63;;;28.70;99.90;;;;;;5077631;28;20734;-78
2021/06/03 12:37:29;;;;;;;2.77;2.00;;;29.00;99.90;;;;;;5090147;28;20309;-79
2021/06/03 12:39:56;;;;;;;2.87;2.10;;;29.10;99.90;;;;;;5093516;28;20604;-79
2021/06/03 12:42:25;;;;;;;2.47;1.97;;;29.20;99.90;;;;;;5090509;28;20605;-77
2021/06/03 12:45:03;;;;;;;2.53;2.27;;;29.20;99.90;;;;;;5090384;28;20594;-76
2021/06/03 12:47:34;;;;;;;2.57;2.37;;;29.20;99.90;;;;;;5091400;28;20965;-76
2021/06/03 12:50:18;;;;;;;2.30;2.10;;;29.20;99.90;;;;;;5090352;28;20941;-76
2021/06/03 12:52:47;;;;;;;2.60;2.07;;;28.90;99.90;;;;;;5091313;28;20633;-77
2021/06/03 12:55:15;;;;;;;3.17;2.63;;;28.80;99.90;;;;;;5091727;28;20572;-76
2021/06/03 12:57:42;;;;;;;2.77;1.90;;;28.60;99.90;;;;;;5069206;28;20685;-77
2021/06/03 13:00:23;;;;;;;2.73;2.33;;;28.50;99.90;;;;;;5039091;28;20575;-77
2021/06/03 13:02:49;;;;;;;2.70;1.90;;;28.40;99.90;;;;;;5073293;28;20629;-76